Time;durP1;ratioP1;P1;durP2;ratioP2;P2;SDS_P1;SDS_P2;PMS_P1;PMS_P2;Temp;Humidity;BMP_temperature;BMP_pressure;BME280_temperature;BME280_humidity;BME280_pressure;Samples;Min_cycle;Max_cycle;Signal;HPM_P1;HPM_P2
2022/10/19 00:01:55;;;;;;;10.60;2.33;;;12.90;85.20;;;;;;4990244;28;20014;-75
2022/10/19 00:04:21;;;;;;;11.32;2.95;;;12.90;85.80;;;;;;5009064;28;20037;-76
2022/10/19 00:06:48;;;;;;;13.00;2.70;;;12.90;85.10;;;;;;5005760;28;20056;-75
2022/10/19 00:09:17;;;;;;;11.80;2.75;;;12.80;85.40;;;;;;5002572;28;20543;-75
2022/10/19 00:11:46;;;;;;;8.98;1.88;;;12.80;85.50;;;;;;4990720;28;20081;-76
2022/10/19 00:14:15;;;;;;;12.05;2.67;;;12.80;85.40;;;;;;5008532;28;20026;-76
2022/10/19 00:16:43;;;;;;;8.57;2.30;;;12.80;85.40;;;;;;5008018;28;20407;-76
2022/10/19 00:19:13;;;;;;;5.68;2.17;;;12.80;85.30;;;;;;5006945;28;20042;-77
2022/10/19 00:21:39;;;;;;;6.18;2.03;;;12.80;85.60;;;;;;5007653;28;20034;-76
2022/10/19 00:24:06;;;;;;;10.90;2.58;;;12.80;85.50;;;;;;5007856;28;20479;-74
2022/10/19 00:26:31;;;;;;;12.15;2.72;;;12.80;85.60;;;;;;5005439;28;20026;-75
2022/10/19 00:28:57;;;;;;;9.82;2.58;;;12.70;85.50;;;;;;4974861;28;20064;-76
2022/10/19 00:31:24;;;;;;;8.05;2.20;;;12.70;85.60;;;;;;5009085;28;20283;-75
2022/10/19 00:33:49;;;;;;;10.93;2.63;;;12.70;85.70;;;;;;5008959;28;20030;-76
2022/10/19 00:36:22;;;;;;;9.73;2.60;;;12.70;85.90;;;;;;5008739;28;20492;-76
2022/10/19 00:38:48;;;;;;;9.38;2.30;;;12.60;85.80;;;;;;5008591;28;20040;-76
2022/10/19 00:41:14;;;;;;;9.02;2.10;;;12.60;85.90;;;;;;5007548;28;20097;-76
2022/10/19 00:43:54;;;;;;;7.88;2.40;;;12.60;85.90;;;;;;5003349;28;20034;-75
2022/10/19 00:46:20;;;;;;;8.65;2.20;;;12.60;85.80;;;;;;4998570;28;20021;-75
2022/10/19 00:48:46;;;;;;;6.07;2.00;;;12.60;85.70;;;;;;5003068;28;20941;-75
2022/10/19 00:51:14;;;;;;;8.90;1.80;;;12.60;86.10;;;;;;5007813;28;20030;-76
2022/10/19 00:53:40;;;;;;;6.30;2.30;;;12.60;85.80;;;;;;5008471;28;20041;-76
2022/10/19 00:56:14;;;;;;;6.95;2.55;;;12.60;85.90;;;;;;5006768;28;20034;-75
2022/10/19 00:58:42;;;;;;;6.30;2.03;;;12.60;85.80;;;;;;4989568;28;20033;-75
2022/10/19 01:01:11;;;;;;;8.68;1.92;;;12.60;85.50;;;;;;5010434;28;20022;-76
2022/10/19 01:03:38;;;;;;;5.63;1.83;;;12.60;85.30;;;;;;5011282;28;20036;-75
2022/10/19 01:06:05;;;;;;;8.05;2.65;;;12.60;85.10;;;;;;5001739;28;20034;-75
2022/10/19 01:08:30;;;;;;;11.05;2.00;;;12.60;85.70;;;;;;5011045;28;20021;-75
2022/10/19 01:11:02;;;;;;;6.45;1.77;;;12.60;85.00;;;;;;4989365;28;20084;-77
2022/10/19 01:14:24;;;;;;;7.35;1.42;;;12.60;85.10;;;;;;5011763;28;20022;-76
2022/10/19 01:17:27;;;;;;;8.30;1.85;;;12.60;85.10;;;;;;4916821;29;20410;-75
2022/10/19 01:20:10;;;;;;;6.05;1.67;;;12.60;85.10;;;;;;4944221;28;20063;-76
2022/10/19 01:23:00;;;;;;;14.27;1.88;;;12.60;85.10;;;;;;4995277;28;20050;-76
2022/10/19 01:25:56;;;;;;;7.43;1.90;;;12.50;85.30;;;;;;4987450;28;20030;-76
2022/10/19 01:28:31;;;;;;;5.80;1.33;;;12.50;85.30;;;;;;5011311;28;20102;-75
2022/10/19 01:31:01;;;;;;;7.43;2.10;;;12.50;85.10;;;;;;4994117;28;20030;-76
2022/10/19 01:33:34;;;;;;;8.52;2.35;;;12.50;85.30;;;;;;5010851;28;20562;-75
2022/10/19 01:36:30;;;;;;;6.13;2.03;;;12.50;85.30;;;;;;5010951;28;20533;-75
2022/10/19 01:39:10;;;;;;;6.20;1.55;;;12.40;85.40;;;;;;4993756;28;20044;-75
2022/10/19 01:41:53;;;;;;;6.07;1.60;;;12.40;85.40;;;;;;5011533;28;20025;-76
2022/10/19 01:44:31;;;;;;;6.75;1.48;;;12.40;85.30;;;;;;5009997;28;20029;-75
2022/10/19 01:47:08;;;;;;;6.15;2.22;;;12.40;85.20;;;;;;5002349;28;20508;-76
2022/10/19 01:49:35;;;;;;;9.07;1.50;;;12.30;85.20;;;;;;5011001;28;20805;-75
2022/10/19 01:52:07;;;;;;;9.45;2.03;;;12.30;85.20;;;;;;5011014;28;20486;-74
2022/10/19 01:54:41;;;;;;;6.78;1.70;;;12.30;85.20;;;;;;5010720;28;20034;-75
2022/10/19 01:57:10;;;;;;;5.07;1.60;;;12.30;85.20;;;;;;5010088;28;20066;-76
2022/10/19 01:59:37;;;;;;;4.22;1.25;;;12.30;85.80;;;;;;4992723;28;20038;-76
2022/10/19 02:02:05;;;;;;;7.03;1.90;;;12.30;84.90;;;;;;5010116;28;20076;-75
2022/10/19 02:04:33;;;;;;;7.30;1.33;;;12.30;84.90;;;;;;5006185;28;20112;-76
2022/10/19 02:07:01;;;;;;;5.78;1.52;;;12.20;84.90;;;;;;5008566;28;20851;-76
2022/10/19 02:09:26;;;;;;;9.45;1.40;;;12.20;84.90;;;;;;4991284;28;20030;-76
2022/10/19 02:11:59;;;;;;;7.65;1.65;;;12.20;85.00;;;;;;5010372;28;20758;-76
2022/10/19 02:14:30;;;;;;;9.70;1.45;;;12.10;85.00;;;;;;5009753;28;20065;-76
2022/10/19 02:17:07;;;;;;;7.47;1.40;;;12.20;85.00;;;;;;4992913;28;20042;-76
2022/10/19 02:19:32;;;;;;;9.70;1.17;;;12.10;85.00;;;;;;5009725;28;20065;-76
2022/10/19 02:21:58;;;;;;;9.52;1.77;;;12.10;85.00;;;;;;5002287;28;20026;-75
2022/10/19 02:24:25;;;;;;;6.55;1.50;;;12.10;85.10;;;;;;5009720;28;20034;-75
2022/10/19 02:26:52;;;;;;;11.52;1.92;;;12.10;85.20;;;;;;5010532;28;20391;-75
2022/10/19 02:29:18;;;;;;;5.35;1.50;;;12.10;85.20;;;;;;5011071;28;20088;-75
2022/10/19 02:31:44;;;;;;;4.97;0.90;;;12.10;85.20;;;;;;5010707;28;20435;-76
2022/10/19 02:34:10;;;;;;;4.63;1.08;;;12.00;85.30;;;;;;4998666;28;20018;-76
2022/10/19 02:36:36;;;;;;;6.95;1.30;;;12.00;85.50;;;;;;4983929;28;20030;-76
2022/10/19 02:39:02;;;;;;;4.82;1.70;;;12.00;85.60;;;;;;4987929;28;20030;-76
2022/10/19 02:41:46;;;;;;;6.90;1.23;;;12.00;85.70;;;;;;5009651;28;20030;-74
2022/10/19 02:44:33;;;;;;;6.30;1.38;;;12.00;85.90;;;;;;5010937;28;20030;-76
2022/10/19 02:47:17;;;;;;;7.72;1.20;;;11.90;85.90;;;;;;5008646;28;20415;-77
2022/10/19 02:49:43;;;;;;;6.40;1.33;;;11.90;85.90;;;;;;5000945;28;20077;-76
2022/10/19 02:52:14;;;;;;;7.55;1.20;;;11.90;85.90;;;;;;5010498;28;20029;-75
2022/10/19 02:54:42;;;;;;;5.13;1.13;;;11.90;86.00;;;;;;5011494;28;20104;-75
2022/10/19 02:57:16;;;;;;;3.28;1.00;;;11.90;86.00;;;;;;5010257;28;20029;-75
2022/10/19 02:59:42;;;;;;;8.00;2.17;;;11.80;86.00;;;;;;5010908;28;20029;-75
2022/10/19 03:02:08;;;;;;;9.02;1.10;;;11.80;86.00;;;;;;5008349;28;20391;-76
2022/10/19 03:04:33;;;;;;;7.60;1.38;;;11.80;86.00;;;;;;5002303;28;20041;-76
2022/10/19 03:06:59;;;;;;;13.15;1.83;;;11.80;86.00;;;;;;5010695;28;20749;-75
2022/10/19 03:09:25;;;;;;;9.80;1.25;;;11.80;86.00;;;;;;5003666;28;20025;-76
2022/10/19 03:11:51;;;;;;;5.10;1.17;;;11.80;86.20;;;;;;5009227;28;20057;-75
2022/10/19 03:14:16;;;;;;;5.15;1.25;;;11.80;86.40;;;;;;5007586;28;20029;-75
2022/10/19 03:16:42;;;;;;;3.22;1.25;;;11.70;86.50;;;;;;5009514;28;20092;-75
2022/10/19 03:19:08;;;;;;;4.88;1.40;;;11.70;86.70;;;;;;5009171;28;20050;-76
2022/10/19 03:21:34;;;;;;;7.78;1.40;;;11.80;86.70;;;;;;5009671;28;20037;-75
2022/10/19 03:24:00;;;;;;;4.47;1.45;;;11.70;87.00;;;;;;5008973;28;20022;-75
2022/10/19 03:26:26;;;;;;;6.50;1.60;;;11.70;87.70;;;;;;4991819;28;20440;-75
2022/10/19 03:28:52;;;;;;;9.80;1.55;;;11.70;87.10;;;;;;5009568;28;20026;-76
2022/10/19 03:31:18;;;;;;;9.38;1.80;;;11.70;87.20;;;;;;5009844;28;21498;-75
2022/10/19 03:33:44;;;;;;;4.25;1.30;;;11.70;87.20;;;;;;4985495;28;20026;-76
2022/10/19 03:36:18;;;;;;;5.35;1.70;;;11.70;87.40;;;;;;4988362;28;20046;-76
2022/10/19 03:38:44;;;;;;;5.55;1.60;;;11.80;88.10;;;;;;5008219;28;20048;-76
2022/10/19 03:41:09;;;;;;;2.15;0.88;;;11.80;88.80;;;;;;5007297;28;20527;-76
2022/10/19 03:43:36;;;;;;;6.70;1.90;;;11.80;89.50;;;;;;4991138;28;20030;-76
2022/10/19 03:46:02;;;;;;;5.93;1.30;;;11.80;90.00;;;;;;4992128;28;20060;-76
2022/10/19 03:48:28;;;;;;;4.57;1.80;;;11.70;90.00;;;;;;5008398;28;20030;-76
2022/10/19 03:51:02;;;;;;;5.50;1.33;;;11.80;90.10;;;;;;5010419;28;20021;-76
2022/10/19 03:53:30;;;;;;;4.82;1.45;;;11.80;89.90;;;;;;5008062;28;20025;-76
2022/10/19 03:56:19;;;;;;;11.25;2.22;;;11.80;89.40;;;;;;5010213;28;20030;-76
2022/10/19 03:58:46;;;;;;;7.70;1.52;;;11.80;89.30;;;;;;5006577;28;20101;-75
2022/10/19 04:01:21;;;;;;;6.43;1.70;;;11.80;88.70;;;;;;4991599;28;20507;-76
2022/10/19 04:03:47;;;;;;;4.80;1.90;;;11.80;88.40;;;;;;5007222;28;20057;-76
2022/10/19 04:06:15;;;;;;;5.55;1.63;;;11.80;88.10;;;;;;5009347;28;20030;-76
2022/10/19 04:08:40;;;;;;;10.00;1.75;;;11.80;87.80;;;;;;5008493;28;20033;-76
2022/10/19 04:11:11;;;;;;;8.32;1.90;;;11.80;87.60;;;;;;4991483;28;20037;-75
2022/10/19 04:13:37;;;;;;;5.68;1.45;;;11.80;87.50;;;;;;5004543;28;20483;-76
2022/10/19 04:16:03;;;;;;;7.60;1.95;;;11.80;87.30;;;;;;5009346;28;20674;-76
2022/10/19 04:18:28;;;;;;;7.80;1.58;;;11.80;87.30;;;;;;4995914;28;20041;-76
2022/10/19 04:20:59;;;;;;;8.30;2.03;;;11.80;87.40;;;;;;5008773;28;20022;-76
2022/10/19 04:23:34;;;;;;;;;;;11.80;87.40;;;;;;4978477;28;20112;-77
2022/10/19 04:26:06;;;;;;;12.38;2.05;;;11.80;87.30;;;;;;5007943;28;20633;-76
2022/10/19 04:28:33;;;;;;;8.02;1.95;;;11.80;87.10;;;;;;5007951;28;20032;-77
2022/10/19 04:31:03;;;;;;;7.47;1.90;;;11.80;87.20;;;;;;5007967;28;20079;-75
2022/10/19 04:33:29;;;;;;;6.18;2.13;;;11.70;87.40;;;;;;5006879;28;20476;-76
2022/10/19 04:36:05;;;;;;;7.47;1.92;;;11.70;87.90;;;;;;5011858;28;20030;-74
2022/10/19 04:38:32;;;;;;;7.00;2.30;;;11.60;88.00;;;;;;4995558;28;20026;-77
2022/10/19 04:41:10;;;;;;;7.07;1.45;;;11.70;87.80;;;;;;5012895;28;20022;-76
2022/10/19 04:43:36;;;;;;;5.00;1.83;;;11.70;87.50;;;;;;5013733;28;20026;-75
2022/10/19 04:46:04;;;;;;;5.93;1.65;;;11.70;87.30;;;;;;4994933;28;20036;-76
2022/10/19 04:48:30;;;;;;;7.85;1.80;;;11.70;87.00;;;;;;5011705;28;20021;-76
2022/10/19 04:50:56;;;;;;;6.60;1.92;;;11.60;87.40;;;;;;4995147;28;20025;-76
2022/10/19 04:53:22;;;;;;;4.97;1.65;;;11.60;86.50;;;;;;5010868;28;20476;-77
2022/10/19 04:55:48;;;;;;;4.18;1.75;;;11.60;86.40;;;;;;5011443;28;20059;-77
2022/10/19 04:58:13;;;;;;;9.75;1.90;;;11.60;86.30;;;;;;4998731;28;20664;-75
2022/10/19 05:00:40;;;;;;;6.45;1.98;;;11.60;86.30;;;;;;5009853;28;20058;-76
2022/10/19 05:03:06;;;;;;;7.32;2.15;;;11.50;86.30;;;;;;5011860;28;20453;-76
2022/10/19 05:05:32;;;;;;;8.32;1.80;;;11.50;86.30;;;;;;5011879;28;20022;-77
2022/10/19 05:07:58;;;;;;;12.95;2.08;;;11.50;86.50;;;;;;5012302;28;20033;-76
2022/10/19 05:10:23;;;;;;;9.43;2.72;;;11.40;86.50;;;;;;5012074;28;20022;-76
2022/10/19 05:12:49;;;;;;;6.25;2.20;;;11.40;86.80;;;;;;5011657;28;20036;-76
2022/10/19 05:15:15;;;;;;;6.63;2.53;;;11.30;86.90;;;;;;4993860;28;20423;-75
2022/10/19 05:17:40;;;;;;;9.32;2.45;;;11.30;87.10;;;;;;5001914;28;20033;-76
2022/10/19 05:20:06;;;;;;;7.72;1.90;;;11.30;87.10;;;;;;4994279;28;20096;-76
2022/10/19 05:22:32;;;;;;;9.00;2.40;;;11.30;87.10;;;;;;5011144;28;20490;-77
2022/10/19 05:24:58;;;;;;;8.25;1.95;;;11.20;87.00;;;;;;5011646;28;20030;-75
2022/10/19 05:27:24;;;;;;;8.25;1.80;;;11.20;87.00;;;;;;4990398;28;20036;-76
2022/10/19 05:29:53;;;;;;;8.15;2.20;;;11.20;87.00;;;;;;5011893;28;20033;-75
2022/10/19 05:32:18;;;;;;;8.23;2.20;;;11.10;86.90;;;;;;5011638;28;20388;-77
2022/10/19 05:34:44;;;;;;;10.07;2.70;;;11.10;87.10;;;;;;5000992;28;20022;-75
2022/10/19 05:37:09;;;;;;;4.95;1.83;;;11.10;87.10;;;;;;5007322;28;20080;-76
2022/10/19 05:39:35;;;;;;;6.45;1.52;;;11.10;87.20;;;;;;5011359;28;20120;-76
2022/10/19 05:42:01;;;;;;;5.15;2.08;;;11.10;87.20;;;;;;5009840;28;20520;-76
2022/10/19 05:44:26;;;;;;;8.68;1.88;;;11.10;87.20;;;;;;5009158;28;20033;-75
2022/10/19 05:46:52;;;;;;;6.40;1.40;;;11.10;87.40;;;;;;5010290;28;20756;-78
2022/10/19 05:49:21;;;;;;;6.82;1.85;;;11.00;87.60;;;;;;5010291;28;20018;-76
2022/10/19 05:51:47;;;;;;;4.60;1.70;;;11.00;87.70;;;;;;5010625;28;20034;-75
2022/10/19 05:54:14;;;;;;;7.25;1.90;;;11.00;87.70;;;;;;4993031;28;20026;-75
2022/10/19 05:56:40;;;;;;;8.10;1.55;;;10.90;87.60;;;;;;5009369;28;20034;-73
2022/10/19 05:59:07;;;;;;;8.63;1.75;;;10.90;87.70;;;;;;5011101;28;20125;-75
2022/10/19 06:01:35;;;;;;;6.95;2.53;;;10.90;88.10;;;;;;5010690;28;20026;-76
2022/10/19 06:04:01;;;;;;;9.52;2.08;;;10.90;88.60;;;;;;5011322;28;20112;-74
2022/10/19 06:06:29;;;;;;;8.98;2.92;;;10.80;89.10;;;;;;4994990;28;20045;-75
2022/10/19 06:08:57;;;;;;;8.02;2.38;;;10.80;89.60;;;;;;5011468;28;20018;-74
2022/10/19 06:11:26;;;;;;;7.32;2.63;;;10.80;89.90;;;;;;4994785;28;20373;-75
2022/10/19 06:13:57;;;;;;;8.27;2.47;;;10.80;90.10;;;;;;5010783;28;20654;-75
2022/10/19 06:16:25;;;;;;;9.75;2.63;;;10.80;90.20;;;;;;4994024;28;20323;-76
2022/10/19 06:18:52;;;;;;;6.85;2.90;;;10.90;90.30;;;;;;5006278;28;20045;-76
2022/10/19 06:21:20;;;;;;;7.55;1.90;;;10.90;90.40;;;;;;5008199;28;20029;-75
2022/10/19 06:23:54;;;;;;;12.13;2.20;;;10.90;90.40;;;;;;5001772;28;20113;-76
2022/10/19 06:26:20;;;;;;;15.13;3.13;;;11.00;90.40;;;;;;4988080;28;20033;-75
2022/10/19 06:28:47;;;;;;;13.45;2.67;;;11.00;90.50;;;;;;5010261;28;20037;-76
2022/10/19 06:31:15;;;;;;;10.18;2.80;;;11.10;90.80;;;;;;5008627;28;20029;-75
2022/10/19 06:33:43;;;;;;;7.78;2.03;;;11.20;91.00;;;;;;5010774;28;20044;-74
2022/10/19 06:36:14;;;;;;;7.18;1.60;;;11.40;91.00;;;;;;5009491;28;20069;-76
2022/10/19 06:38:41;;;;;;;12.13;2.33;;;11.60;91.00;;;;;;5009497;28;20030;-76
2022/10/19 06:41:06;;;;;;;5.43;1.35;;;11.90;90.70;;;;;;5009605;28;20036;-75
2022/10/19 06:43:34;;;;;;;9.23;1.83;;;12.20;90.40;;;;;;4992427;28;20034;-76
2022/10/19 06:46:14;;;;;;;5.53;1.45;;;12.50;90.00;;;;;;5005136;28;20034;-75
2022/10/19 06:48:40;;;;;;;3.28;1.20;;;12.80;88.80;;;;;;5004802;28;20018;-74
2022/10/19 06:51:06;;;;;;;1.65;0.50;;;12.90;88.00;;;;;;5008512;28;20124;-74
2022/10/19 06:53:33;;;;;;;1.73;0.55;;;13.20;87.30;;;;;;4974333;28;20030;-75
2022/10/19 06:56:00;;;;;;;5.50;1.08;;;13.70;86.00;;;;;;4990178;28;20029;-75
2022/10/19 06:58:26;;;;;;;5.15;1.05;;;13.90;85.10;;;;;;5003805;28;20037;-73
2022/10/19 07:00:56;;;;;;;5.53;1.15;;;14.10;84.10;;;;;;5009336;28;20018;-74
2022/10/19 07:03:23;;;;;;;4.68;1.05;;;14.30;83.00;;;;;;5008585;28;20029;-76
2022/10/19 07:05:56;;;;;;;5.55;0.98;;;14.40;82.80;;;;;;5003925;28;20033;-76
2022/10/19 07:08:23;;;;;;;4.88;0.95;;;14.70;82.20;;;;;;5005431;28;20714;-75
2022/10/19 07:10:53;;;;;;;6.80;1.65;;;14.80;81.90;;;;;;5007664;28;20022;-74
2022/10/19 07:13:19;;;;;;;5.38;1.38;;;14.90;81.00;;;;;;5008332;28;20384;-75
2022/10/19 07:15:45;;;;;;;2.78;0.50;;;14.90;81.20;;;;;;5007121;28;20029;-75
2022/10/19 07:18:11;;;;;;;4.68;1.00;;;15.00;81.40;;;;;;5007339;28;20454;-75
2022/10/19 07:20:37;;;;;;;5.55;1.30;;;15.10;81.10;;;;;;4990893;28;20026;-75
2022/10/19 07:23:02;;;;;;;4.72;1.08;;;15.20;81.00;;;;;;4991436;28;20098;-76
2022/10/19 07:25:29;;;;;;;5.47;0.90;;;15.30;79.90;;;;;;4990082;28;20042;-75
2022/10/19 07:27:55;;;;;;;4.68;1.10;;;15.30;79.60;;;;;;4981918;28;20026;-74
2022/10/19 07:30:21;;;;;;;8.10;1.50;;;15.30;78.80;;;;;;5006776;28;20542;-75
2022/10/19 07:32:47;;;;;;;3.92;1.00;;;15.30;78.40;;;;;;4976023;28;20022;-75
2022/10/19 07:35:13;;;;;;;8.55;1.65;;;15.30;79.40;;;;;;5007214;28;20477;-75
2022/10/19 07:37:39;;;;;;;5.57;1.17;;;15.30;77.80;;;;;;5009402;28;20500;-76
2022/10/19 07:40:05;;;;;;;5.55;1.35;;;15.40;78.70;;;;;;5008373;28;20032;-75
2022/10/19 07:42:31;;;;;;;3.85;1.00;;;15.40;78.10;;;;;;5005782;28;20033;-74
2022/10/19 07:44:56;;;;;;;3.28;1.20;;;15.50;78.10;;;;;;5007948;28;20396;-75
2022/10/19 07:47:22;;;;;;;7.30;1.23;;;15.60;78.20;;;;;;5005465;28;20107;-76
2022/10/19 07:49:47;;;;;;;9.82;1.25;;;15.70;77.30;;;;;;5007162;28;20121;-75
2022/10/19 07:52:13;;;;;;;9.68;1.25;;;15.70;77.90;;;;;;5007441;28;20034;-75
2022/10/19 07:54:39;;;;;;;7.22;1.23;;;15.80;78.00;;;;;;5009357;28;20033;-75
2022/10/19 07:57:05;;;;;;;6.93;1.48;;;15.80;77.60;;;;;;5004840;28;20543;-76
2022/10/19 07:59:30;;;;;;;7.03;1.70;;;15.70;76.30;;;;;;4973225;28;20034;-75
2022/10/19 08:01:57;;;;;;;5.20;1.33;;;15.60;77.50;;;;;;4990825;28;20145;-75
2022/10/19 08:04:25;;;;;;;8.05;2.70;;;15.60;77.30;;;;;;4975420;28;20671;-76
2022/10/19 08:06:51;;;;;;;6.40;1.88;;;15.70;79.00;;;;;;5008052;28;20030;-75
2022/10/19 08:09:16;;;;;;;4.47;2.05;;;15.80;77.70;;;;;;4995627;28;20041;-74
2022/10/19 08:11:42;;;;;;;7.05;1.83;;;15.80;77.50;;;;;;5007842;28;20129;-77
2022/10/19 08:14:11;;;;;;;7.22;1.75;;;16.00;79.00;;;;;;5008272;28;20061;-76
2022/10/19 08:16:40;;;;;;;8.00;1.60;;;16.00;77.10;;;;;;5008399;28;20077;-78
2022/10/19 08:19:14;;;;;;;4.93;1.52;;;16.00;77.80;;;;;;4990898;28;20469;-79
2022/10/19 08:21:45;;;;;;;5.03;1.67;;;16.00;78.20;;;;;;5009261;28;20025;-79
2022/10/19 08:24:13;;;;;;;8.13;1.58;;;15.90;77.50;;;;;;4987083;28;20033;-81
2022/10/19 08:26:40;;;;;;;9.55;2.33;;;16.00;79.20;;;;;;5006733;28;20026;-80
2022/10/19 08:29:17;;;;;;;7.15;2.15;;;16.00;77.90;;;;;;5000133;28;20038;-78
2022/10/19 08:31:44;;;;;;;5.97;2.08;;;16.00;78.50;;;;;;5005295;28;20566;-80
2022/10/19 08:34:11;;;;;;;5.47;1.42;;;16.10;76.10;;;;;;5009748;28;20152;-78
2022/10/19 08:36:38;;;;;;;3.72;1.63;;;16.10;75.60;;;;;;5008891;28;20042;-79
2022/10/19 08:39:06;;;;;;;5.60;2.15;;;16.00;75.30;;;;;;4991507;28;20038;-79
2022/10/19 08:41:52;;;;;;;5.30;1.77;;;16.00;76.50;;;;;;5009597;28;20037;-79
2022/10/19 08:44:39;;;;;;;12.52;2.72;;;16.10;77.40;;;;;;4994484;28;20021;-79
2022/10/19 08:47:14;;;;;;;8.80;2.50;;;16.20;76.30;;;;;;5007776;28;20110;-78
2022/10/19 08:49:40;;;;;;;6.95;1.70;;;16.30;74.50;;;;;;5008663;28;20018;-79
2022/10/19 08:52:16;;;;;;;4.93;1.23;;;16.20;79.50;;;;;;5008449;28;20036;-80
2022/10/19 08:54:54;;;;;;;11.00;2.70;;;16.30;80.20;;;;;;4988455;28;20026;-78
2022/10/19 08:57:38;;;;;;;8.60;1.77;;;16.50;76.10;;;;;;5008994;28;20037;-79
2022/10/19 09:00:13;;;;;;;6.07;1.90;;;16.60;79.20;;;;;;5009767;28;20033;-79
2022/10/19 09:03:21;;;;;;;5.47;1.60;;;16.60;76.10;;;;;;4975688;28;20171;-77
2022/10/19 09:06:07;;;;;;;2.92;1.00;;;16.70;81.30;;;;;;4975579;28;20108;-76
2022/10/19 09:08:37;;;;;;;11.00;3.05;;;16.80;90.00;;;;;;5010641;28;20048;-79
2022/10/19 09:11:05;;;;;;;7.63;2.38;;;16.80;88.30;;;;;;5009978;28;20026;-80
2022/10/19 09:13:34;;;;;;;2.85;0.85;;;16.70;80.10;;;;;;5005468;28;20113;-74
2022/10/19 09:16:01;;;;;;;3.22;1.00;;;16.70;84.20;;;;;;5005738;28;20112;-74
2022/10/19 09:18:30;;;;;;;3.25;0.80;;;17.00;89.20;;;;;;5004423;28;20057;-75
2022/10/19 09:21:11;;;;;;;2.42;0.70;;;17.20;90.10;;;;;;5003729;28;20026;-73
2022/10/19 09:23:44;;;;;;;2.95;0.82;;;17.40;90.00;;;;;;5009089;28;20064;-74
2022/10/19 09:26:16;;;;;;;2.67;0.90;;;17.60;89.60;;;;;;5008716;28;20125;-75
2022/10/19 09:28:52;;;;;;;3.78;1.00;;;17.80;89.30;;;;;;5008491;28;20014;-74
2022/10/19 09:31:30;;;;;;;3.80;0.77;;;18.00;90.00;;;;;;5008079;28;20042;-75
2022/10/19 09:34:05;;;;;;;5.18;1.10;;;18.20;89.40;;;;;;5007494;28;20029;-75
2022/10/19 09:36:44;;;;;;;5.35;1.38;;;18.30;87.40;;;;;;4990912;28;20029;-75
2022/10/19 09:39:13;;;;;;;4.45;1.45;;;18.20;86.90;;;;;;5008041;28;20145;-75
2022/10/19 09:41:50;;;;;;;4.95;1.13;;;18.30;87.40;;;;;;5007024;28;20034;-75
2022/10/19 09:44:16;;;;;;;2.72;0.85;;;18.50;86.10;;;;;;5007396;28;20072;-73
2022/10/19 09:46:50;;;;;;;2.60;0.80;;;18.60;86.80;;;;;;5008489;28;20022;-74
2022/10/19 09:49:17;;;;;;;4.75;1.10;;;18.60;86.90;;;;;;5007662;28;20110;-75
2022/10/19 09:51:51;;;;;;;2.08;0.63;;;18.70;86.20;;;;;;5007676;28;20022;-74
2022/10/19 09:54:33;;;;;;;3.60;0.98;;;18.90;86.80;;;;;;5008096;28;20033;-75
2022/10/19 09:56:59;;;;;;;5.70;1.20;;;19.10;86.30;;;;;;5008004;28;20594;-75
2022/10/19 09:59:29;;;;;;;4.78;1.20;;;19.20;85.70;;;;;;5006430;28;20155;-76
2022/10/19 10:02:13;;;;;;;3.28;0.85;;;19.20;85.50;;;;;;5007186;28;20026;-75
2022/10/19 10:04:39;;;;;;;3.63;1.13;;;19.30;85.60;;;;;;5007454;28;20426;-75
2022/10/19 10:07:05;;;;;;;3.10;0.70;;;19.40;83.30;;;;;;5006954;28;20101;-75
2022/10/19 10:09:31;;;;;;;6.18;1.42;;;19.30;83.50;;;;;;4990474;28;20028;-75
2022/10/19 10:11:58;;;;;;;4.20;1.17;;;19.10;83.20;;;;;;4989933;28;20026;-75
2022/10/19 10:14:38;;;;;;;5.70;0.95;;;19.00;85.20;;;;;;4989806;28;20030;-74
2022/10/19 10:17:12;;;;;;;5.32;1.23;;;19.00;85.20;;;;;;5007356;28;20103;-74
2022/10/19 10:20:04;;;;;;;5.70;1.05;;;19.00;85.40;;;;;;5007749;28;20123;-76
2022/10/19 10:22:34;;;;;;;3.22;1.13;;;19.00;86.00;;;;;;5007723;28;20036;-75
2022/10/19 10:25:00;;;;;;;6.00;1.02;;;19.10;86.00;;;;;;5006543;28;20773;-77
2022/10/19 10:27:35;;;;;;;5.13;1.20;;;19.30;85.10;;;;;;5006816;28;20486;-75
2022/10/19 10:30:07;;;;;;;5.63;1.40;;;19.40;83.60;;;;;;5007495;28;20032;-76
2022/10/19 10:32:37;;;;;;;3.22;0.60;;;19.40;82.30;;;;;;5006110;28;20492;-75
2022/10/19 10:35:06;;;;;;;3.97;0.90;;;19.30;82.80;;;;;;4989991;28;20482;-76
2022/10/19 10:37:39;;;;;;;5.95;1.30;;;19.20;81.00;;;;;;5007405;28;20112;-76
2022/10/19 10:40:25;;;;;;;3.88;1.00;;;19.20;81.30;;;;;;5008133;28;20032;-76
2022/10/19 10:42:53;;;;;;;5.10;1.13;;;19.40;84.00;;;;;;5006581;28;20040;-76
2022/10/19 10:45:41;;;;;;;6.05;1.02;;;19.50;81.70;;;;;;5007020;28;20033;-76
2022/10/19 10:48:39;;;;;;;4.72;0.90;;;19.50;83.50;;;;;;4988746;28;20030;-76
2022/10/19 10:51:46;;;;;;;5.20;1.38;;;19.50;80.40;;;;;;5005280;28;20394;-76
2022/10/19 10:54:15;;;;;;;8.20;1.25;;;19.50;84.00;;;;;;4930998;29;20039;-77
2022/10/19 10:56:43;;;;;;;5.82;1.60;;;19.50;84.60;;;;;;4994465;28;20052;-75
2022/10/19 10:59:20;;;;;;;8.25;1.55;;;19.50;83.20;;;;;;5006330;28;20113;-76
2022/10/19 11:02:16;;;;;;;4.00;1.10;;;19.50;81.80;;;;;;5006643;28;20022;-76
2022/10/19 11:04:50;;;;;;;4.40;1.10;;;19.50;81.60;;;;;;5006124;28;20360;-77
2022/10/19 11:07:27;;;;;;;2.17;0.77;;;19.50;83.40;;;;;;5006076;28;20117;-77
2022/10/19 11:09:57;;;;;;;5.28;0.93;;;19.60;83.30;;;;;;4989171;28;20029;-76
2022/10/19 11:12:45;;;;;;;3.75;1.23;;;19.60;83.20;;;;;;5006395;28;20025;-76
2022/10/19 11:15:26;;;;;;;5.18;1.08;;;19.60;83.00;;;;;;5005783;28;20456;-76
2022/10/19 11:17:58;;;;;;;3.30;0.80;;;19.60;81.90;;;;;;5005499;28;20040;-76
2022/10/19 11:20:28;;;;;;;3.33;0.77;;;19.60;83.10;;;;;;4987144;28;20140;-76
2022/10/19 11:23:14;;;;;;;10.15;1.15;;;19.70;83.40;;;;;;5007155;28;20498;-77
2022/10/19 11:25:57;;;;;;;3.30;1.00;;;19.90;82.40;;;;;;5006467;28;20364;-77
2022/10/19 11:28:41;;;;;;;3.80;1.08;;;20.00;81.40;;;;;;5006219;28;20079;-76
2022/10/19 11:31:31;;;;;;;3.63;0.82;;;20.00;81.50;;;;;;5004910;28;20099;-76
2022/10/19 11:34:09;;;;;;;4.78;1.52;;;20.00;81.90;;;;;;5005246;28;20026;-76
2022/10/19 11:36:43;;;;;;;4.07;0.95;;;20.00;80.80;;;;;;5004170;28;20404;-77
2022/10/19 11:39:14;;;;;;;7.43;0.93;;;20.00;81.60;;;;;;5005070;28;20033;-76
2022/10/19 11:42:24;;;;;;;3.97;1.10;;;20.00;82.10;;;;;;5005476;28;20030;-76
2022/10/19 11:44:56;;;;;;;;;;;20.00;83.30;;;;;;4987984;28;20033;-76
2022/10/19 11:47:38;;;;;;;3.80;1.20;;;20.00;80.90;;;;;;5006040;28;19963;-76
2022/10/19 11:50:32;;;;;;;3.67;0.95;;;19.90;82.70;;;;;;4985348;28;20495;-76
2022/10/19 11:52:58;;;;;;;3.55;0.70;;;19.90;82.90;;;;;;5003979;28;20080;-77
2022/10/19 11:55:39;;;;;;;4.63;0.88;;;19.90;83.10;;;;;;5004611;28;20033;-76
2022/10/19 11:58:34;;;;;;;5.80;1.40;;;19.90;82.20;;;;;;5003867;28;20068;-72
2022/10/19 12:01:46;;;;;;;6.15;0.82;;;19.90;80.80;;;;;;5003504;28;20034;-75
2022/10/19 12:04:33;;;;;;;6.65;1.02;;;19.70;82.00;;;;;;4989435;28;20080;-75
2022/10/19 12:07:04;;;;;;;3.17;0.75;;;19.70;78.90;;;;;;5005644;28;20025;-76
2022/10/19 12:09:48;;;;;;;4.60;1.27;;;19.80;83.00;;;;;;5005481;28;20026;-76
2022/10/19 12:12:25;;;;;;;4.65;0.82;;;19.90;82.10;;;;;;5004835;28;20022;-76
2022/10/19 12:14:59;;;;;;;5.40;1.20;;;20.00;83.30;;;;;;4986652;28;20064;-76
2022/10/19 12:17:36;;;;;;;6.60;1.48;;;20.30;82.90;;;;;;5005026;28;20030;-76
2022/10/19 12:20:21;;;;;;;4.82;1.08;;;20.40;82.90;;;;;;5004931;28;20124;-74
2022/10/19 12:22:48;;;;;;;5.68;0.90;;;20.50;80.80;;;;;;5003906;28;20033;-77
2022/10/19 12:25:16;;;;;;;1.98;0.60;;;20.60;81.80;;;;;;4982939;28;20031;-76
2022/10/19 12:27:46;;;;;;;3.03;0.90;;;20.60;81.90;;;;;;5004086;28;20637;-75
2022/10/19 12:30:21;;;;;;;5.40;0.93;;;20.70;80.90;;;;;;4986176;28;20561;-76
2022/10/19 12:33:11;;;;;;;4.47;0.85;;;20.70;80.60;;;;;;5004002;28;20219;-76
2022/10/19 12:35:58;;;;;;;5.03;0.90;;;20.70;80.90;;;;;;5003427;28;20025;-76
2022/10/19 12:38:44;;;;;;;6.50;1.40;;;20.70;82.20;;;;;;5003636;28;20034;-76
2022/10/19 12:41:17;;;;;;;2.80;0.60;;;20.70;81.80;;;;;;5006026;28;20029;-76
2022/10/19 12:43:56;;;;;;;3.22;0.60;;;20.90;82.10;;;;;;5004820;28;20216;-75
2022/10/19 12:46:22;;;;;;;5.90;1.23;;;21.00;82.20;;;;;;5005349;28;20795;-76
2022/10/19 12:49:25;;;;;;;4.03;1.08;;;21.20;78.60;;;;;;5004259;28;20037;-76
2022/10/19 12:51:52;;;;;;;3.67;0.88;;;21.00;78.70;;;;;;5004591;28;20388;-76
2022/10/19 12:54:23;;;;;;;3.92;0.70;;;21.00;80.00;;;;;;5004922;28;20159;-76
2022/10/19 12:56:55;;;;;;;2.63;0.70;;;21.00;80.50;;;;;;4988527;28;20085;-75
2022/10/19 12:59:28;;;;;;;2.22;0.70;;;21.00;80.10;;;;;;5008369;28;20034;-74
2022/10/19 13:01:55;;;;;;;4.43;1.27;;;20.90;81.70;;;;;;5008481;28;20026;-74
2022/10/19 13:04:26;;;;;;;4.68;1.25;;;21.00;81.50;;;;;;5008595;28;20045;-76
2022/10/19 13:07:09;;;;;;;4.85;1.10;;;21.00;81.70;;;;;;5008771;28;20030;-76
2022/10/19 13:09:38;;;;;;;3.50;0.80;;;21.10;80.10;;;;;;5008971;28;20101;-74